createdAt,value
2022-11-28T00:01:30.547Z,92.35
2022-11-28T00:03:57.452Z,92.28
2022-11-28T00:06:24.473Z,92.01
2022-11-28T00:08:54.732Z,92.33
2022-11-28T00:11:25.096Z,92.10
2022-11-28T00:13:51.756Z,92.06
2022-11-28T00:16:21.648Z,93.15
2022-11-28T00:19:00.912Z,93.11
2022-11-28T00:21:31.625Z,92.96
2022-11-28T00:24:00.756Z,93.69
2022-11-28T00:26:33.754Z,93.54
2022-11-28T00:29:01.048Z,93.99
2022-11-28T00:31:33.108Z,95.24
2022-11-28T00:34:05.395Z,95.25
2022-11-28T00:36:32.041Z,95.18
2022-11-28T00:38:59.109Z,95.63
2022-11-28T00:41:28.831Z,96.19
2022-11-28T00:43:55.817Z,96.16
2022-11-28T00:46:29.241Z,96.36
2022-11-28T00:48:57.695Z,96.37
2022-11-28T00:51:26.931Z,95.60
2022-11-28T00:53:55.554Z,94.62
2022-11-28T00:56:25.471Z,94.32
2022-11-28T00:58:56.198Z,94.25
2022-11-28T01:01:29.570Z,94.05
2022-11-28T01:04:04.918Z,91.69
2022-11-28T01:06:37.207Z,93.24
2022-11-28T01:09:15.313Z,96.20
2022-11-28T01:11:46.728Z,97.35
2022-11-28T01:14:13.713Z,97.72
2022-11-28T01:16:47.069Z,97.76
2022-11-28T01:19:13.899Z,97.23
2022-11-28T01:21:41.039Z,96.12
2022-11-28T01:24:14.755Z,95.72
2022-11-28T01:26:45.261Z,95.26
2022-11-28T01:29:14.893Z,94.66
2022-11-28T01:31:41.457Z,94.01
2022-11-28T01:34:08.091Z,93.84
2022-11-28T01:36:34.603Z,94.31
2022-11-28T01:39:01.216Z,94.33
2022-11-28T01:41:28.826Z,94.02
2022-11-28T01:44:23.252Z,92.34
2022-11-28T01:46:51.618Z,91.49
2022-11-28T01:49:21.320Z,91.12
2022-11-28T01:51:50.822Z,91.52
2022-11-28T01:54:20.565Z,93.02
2022-11-28T01:56:56.837Z,93.73
2022-11-28T01:59:27.169Z,93.30
2022-11-28T02:01:53.837Z,92.34
2022-11-28T02:04:22.922Z,91.65
2022-11-28T02:06:49.537Z,90.88
2022-11-28T02:09:19.488Z,90.33
2022-11-28T02:11:52.081Z,89.72
2022-11-28T02:14:36.899Z,90.11
2022-11-28T02:17:34.386Z,90.70
2022-11-28T02:20:09.886Z,91.06
2022-11-28T02:22:40.570Z,91.71
2022-11-28T02:25:18.522Z,92.52
2022-11-28T02:28:13.882Z,92.86
2022-11-28T02:30:48.341Z,92.37
2022-11-28T02:33:37.206Z,92.00
2022-11-28T02:36:25.513Z,90.35
2022-11-28T02:38:56.166Z,90.47
2022-11-28T02:41:42.077Z,89.97
2022-11-28T02:44:32.199Z,89.80
2022-11-28T02:47:05.892Z,89.74
2022-11-28T02:49:42.325Z,90.09
2022-11-28T02:52:31.516Z,89.95
2022-11-28T02:55:02.037Z,90.24
2022-11-28T02:57:40.448Z,90.66
2022-11-28T03:00:31.641Z,91.13
2022-11-28T03:03:16.742Z,91.26
2022-11-28T03:05:47.185Z,91.72
2022-11-28T03:08:22.706Z,91.74
2022-11-28T03:11:17.672Z,91.30
2022-11-28T03:14:02.094Z,91.75
2022-11-28T03:16:44.898Z,91.52
2022-11-28T03:19:34.701Z,91.25
2022-11-28T03:22:01.158Z,91.26
2022-11-28T03:24:39.131Z,91.18
2022-11-28T03:27:19.244Z,90.87
2022-11-28T03:30:03.718Z,92.04
2022-11-28T03:32:35.451Z,93.96
2022-11-28T03:35:11.023Z,94.73
2022-11-28T03:37:46.868Z,94.73
2022-11-28T03:40:17.269Z,94.47
2022-11-28T03:42:49.540Z,94.88
2022-11-28T03:45:23.461Z,94.34
2022-11-28T03:47:57.538Z,94.61
2022-11-28T03:50:51.700Z,95.01
2022-11-28T03:53:23.763Z,95.05
2022-11-28T03:55:55.030Z,95.06
2022-11-28T03:58:32.175Z,94.12
2022-11-28T04:01:03.488Z,94.03
2022-11-28T04:03:54.139Z,94.75
2022-11-28T04:06:35.297Z,94.77
2022-11-28T04:09:14.877Z,94.76
2022-11-28T04:11:54.230Z,94.45
2022-11-28T04:14:29.564Z,94.63
2022-11-28T04:17:19.624Z,91.97
2022-11-28T04:19:56.403Z,90.50
2022-11-28T04:22:34.477Z,88.01
2022-11-28T04:25:07.056Z,89.75
2022-11-28T04:27:38.813Z,92.18
2022-11-28T04:30:07.502Z,93.70
2022-11-28T04:32:38.300Z,94.09
2022-11-28T04:35:16.383Z,94.47
2022-11-28T04:37:45.435Z,94.59
2022-11-28T04:40:13.240Z,93.58
2022-11-28T04:42:49.917Z,90.35
2022-11-28T04:45:35.543Z,85.68
2022-11-28T04:48:02.580Z,82.20
2022-11-28T04:50:43.569Z,78.75
2022-11-28T04:53:16.238Z,75.99
2022-11-28T04:55:55.156Z,73.36
2022-11-28T04:58:38.909Z,71.79
2022-11-28T05:01:09.291Z,72.37
2022-11-28T05:03:41.157Z,72.76
2022-11-28T05:06:09.347Z,76.73
2022-11-28T05:08:35.993Z,80.28
2022-11-28T05:11:05.174Z,82.15
2022-11-28T05:13:31.683Z,84.29
2022-11-28T05:16:04.358Z,86.91
2022-11-28T05:18:30.818Z,88.05
2022-11-28T05:21:01.460Z,89.26
2022-11-28T05:23:27.948Z,90.44
2022-11-28T05:25:54.471Z,90.83
2022-11-28T05:28:20.932Z,91.65
2022-11-28T05:30:57.963Z,92.41
2022-11-28T05:33:24.422Z,92.11
2022-11-28T05:35:50.895Z,92.27
2022-11-28T05:38:17.435Z,90.83
2022-11-28T05:40:44.526Z,88.68
2022-11-28T05:43:11.655Z,87.34
2022-11-28T05:45:42.957Z,87.79
2022-11-28T05:48:09.806Z,88.03
2022-11-28T05:50:41.551Z,87.20
2022-11-28T05:53:08.786Z,86.17
2022-11-28T05:55:37.187Z,86.54
2022-11-28T05:58:06.664Z,87.68
2022-11-28T06:00:33.253Z,89.04
2022-11-28T06:03:01.515Z,90.17
2022-11-28T06:05:44.422Z,90.71
2022-11-28T06:08:12.674Z,90.44
2022-11-28T06:10:39.246Z,90.43
2022-11-28T06:13:05.831Z,90.43
2022-11-28T06:15:37.511Z,90.11
2022-11-28T06:18:05.172Z,90.90
2022-11-28T06:20:31.862Z,91.19
2022-11-28T06:22:58.346Z,91.86
2022-11-28T06:25:25.030Z,92.01
2022-11-28T06:27:51.524Z,92.10
2022-11-28T06:30:18.150Z,92.71
2022-11-28T06:32:44.657Z,93.10
2022-11-28T06:35:12.352Z,93.27
2022-11-28T06:37:38.812Z,93.07
2022-11-28T06:40:05.970Z,92.36
2022-11-28T06:42:35.548Z,91.85
2022-11-28T06:45:09.278Z,91.88
2022-11-28T06:47:35.824Z,91.63
2022-11-28T06:50:02.344Z,91.31
2022-11-28T06:52:28.959Z,90.62
2022-11-28T06:54:55.520Z,90.08
2022-11-28T06:57:22.324Z,89.67
2022-11-28T06:59:50.541Z,89.03
2022-11-28T07:02:17.160Z,88.84
2022-11-28T07:04:43.708Z,89.04
2022-11-28T07:07:15.038Z,88.98
2022-11-28T07:09:43.141Z,88.45
2022-11-28T07:12:12.722Z,88.45
2022-11-28T07:14:39.193Z,88.11
2022-11-28T07:17:05.786Z,88.16
2022-11-28T07:19:32.315Z,88.39
2022-11-28T07:21:58.908Z,88.69
2022-11-28T07:24:25.648Z,88.68
2022-11-28T07:26:53.338Z,88.89
2022-11-28T07:29:29.533Z,89.49
2022-11-28T07:32:02.393Z,90.53
2022-11-28T07:34:32.538Z,90.56
2022-11-28T07:36:59.154Z,90.87
2022-11-28T07:39:26.096Z,91.38
2022-11-28T07:41:55.734Z,91.42
2022-11-28T07:44:22.400Z,91.62
2022-11-28T07:46:49.126Z,91.28
2022-11-28T07:49:16.272Z,91.22
2022-11-28T07:51:45.441Z,91.26
2022-11-28T07:54:11.972Z,91.37
2022-11-28T07:57:10.845Z,90.84
2022-11-28T07:59:25.372Z,90.60
2022-11-28T08:01:53.746Z,90.44
2022-11-28T08:04:20.681Z,90.50
2022-11-28T08:06:47.202Z,90.77
2022-11-28T08:09:13.811Z,90.92
2022-11-28T08:11:40.534Z,91.54
2022-11-28T08:14:07.155Z,91.68
2022-11-28T08:16:33.692Z,91.90
2022-11-28T08:19:02.101Z,91.35
2022-11-28T08:21:31.607Z,90.96
2022-11-28T08:24:00.517Z,91.23
2022-11-28T08:26:30.689Z,92.63
2022-11-28T08:29:01.255Z,93.39
2022-11-28T08:31:38.578Z,93.13
2022-11-28T08:34:09.612Z,93.52
2022-11-28T08:36:39.626Z,93.31
2022-11-28T08:39:27.566Z,93.54
2022-11-28T08:41:58.968Z,93.40
2022-11-28T08:44:30.757Z,93.36
2022-11-28T08:47:00.007Z,93.52
2022-11-28T08:49:26.504Z,93.60
2022-11-28T08:51:53.370Z,93.88
2022-11-28T08:54:20.816Z,93.77
2022-11-28T08:56:48.142Z,94.03
2022-11-28T08:59:17.420Z,94.17
2022-11-28T09:01:43.972Z,94.31
2022-11-28T09:04:10.668Z,94.27
2022-11-28T09:06:39.671Z,94.61
2022-11-28T09:09:06.414Z,94.56
2022-11-28T09:11:32.906Z,94.71
2022-11-28T09:14:02.365Z,94.84
2022-11-28T09:16:31.828Z,94.67
2022-11-28T09:18:59.370Z,95.20
2022-11-28T09:21:26.169Z,95.14
2022-11-28T09:23:55.315Z,95.52
2022-11-28T09:26:24.584Z,95.76
2022-11-28T09:28:54.416Z,95.95
2022-11-28T09:31:21.074Z,96.13
2022-11-28T09:33:49.528Z,96.38
2022-11-28T09:36:18.813Z,96.25
2022-11-28T09:38:49.037Z,96.09
2022-11-28T09:41:53.856Z,96.37
2022-11-28T09:44:43.471Z,96.66
2022-11-28T09:47:28.968Z,96.60
2022-11-28T09:49:58.348Z,96.68
2022-11-28T09:52:41.890Z,96.70
2022-11-28T09:55:29.346Z,96.46
2022-11-28T09:58:01.914Z,95.96
2022-11-28T10:00:38.081Z,95.60
2022-11-28T10:03:16.158Z,95.17
2022-11-28T10:06:04.438Z,96.71
2022-11-28T10:08:36.835Z,97.83
2022-11-28T10:11:19.047Z,97.81
2022-11-28T10:14:07.154Z,96.55
2022-11-28T10:16:56.865Z,95.91
2022-11-28T10:19:53.828Z,95.67
2022-11-28T10:22:34.981Z,95.87
2022-11-28T10:25:08.768Z,96.67
2022-11-28T10:27:35.773Z,98.47
2022-11-28T10:30:07.841Z,99.85
2022-11-28T10:32:48.444Z,100.00
2022-11-28T10:35:42.557Z,100.00
2022-11-28T10:38:16.956Z,100.00
2022-11-28T10:40:59.208Z,99.86
2022-11-28T10:44:05.284Z,100.00
2022-11-28T10:47:09.196Z,100.00
2022-11-28T10:50:05.356Z,100.00
2022-11-28T10:52:53.476Z,100.00
2022-11-28T10:55:26.065Z,100.00
2022-11-28T10:58:21.520Z,100.00
2022-11-28T11:00:51.319Z,100.00
2022-11-28T11:03:22.182Z,99.65
2022-11-28T11:05:48.745Z,99.29
2022-11-28T11:08:21.211Z,98.87
2022-11-28T11:10:49.077Z,98.56
2022-11-28T11:13:26.053Z,98.21
2022-11-28T11:16:10.667Z,98.32
2022-11-28T11:18:43.344Z,98.64
2022-11-28T11:21:20.424Z,98.89
2022-11-28T11:23:48.207Z,98.60
2022-11-28T11:26:24.119Z,98.33
2022-11-28T11:28:51.714Z,98.43
2022-11-28T11:31:29.767Z,98.56
2022-11-28T11:34:12.705Z,98.00
2022-11-28T11:36:39.350Z,97.96
2022-11-28T11:39:12.362Z,97.97
2022-11-28T11:41:41.858Z,97.91
2022-11-28T11:44:14.304Z,98.10
2022-11-28T11:46:56.144Z,97.94
2022-11-28T11:49:39.445Z,98.03
2022-11-28T11:52:12.866Z,98.00
2022-11-28T11:54:40.603Z,98.17
2022-11-28T11:57:31.985Z,98.63
2022-11-28T12:00:07.063Z,98.40
2022-11-28T12:02:40.961Z,98.63
2022-11-28T12:05:25.063Z,98.84
2022-11-28T12:08:12.096Z,99.18
2022-11-28T12:10:48.434Z,99.70
2022-11-28T12:13:23.895Z,99.52
2022-11-28T12:16:15.048Z,99.30
2022-11-28T12:19:17.043Z,99.67
2022-11-28T12:22:16.839Z,100.00
2022-11-28T12:24:46.784Z,99.64
2022-11-28T12:27:43.486Z,99.81
2022-11-28T12:30:28.374Z,99.74
2022-11-28T12:33:25.062Z,99.95
2022-11-28T12:36:23.321Z,100.00
2022-11-28T12:39:05.186Z,100.00
2022-11-28T12:42:09.303Z,100.00
2022-11-28T12:44:54.864Z,100.00
2022-11-28T12:47:48.766Z,100.00
2022-11-28T12:50:32.120Z,100.00
2022-11-28T12:53:28.846Z,100.00
2022-11-28T12:56:25.406Z,100.00
2022-11-28T12:59:02.836Z,100.00
2022-11-28T13:01:38.277Z,100.00
2022-11-28T13:04:29.070Z,100.00
2022-11-28T13:07:30.502Z,100.00
2022-11-28T13:10:23.861Z,100.00
2022-11-28T13:13:28.812Z,100.00
2022-11-28T13:16:27.424Z,100.00
2022-11-28T13:19:28.615Z,100.00
2022-11-28T13:22:19.791Z,100.00
2022-11-28T13:25:12.043Z,100.00
2022-11-28T13:27:53.661Z,100.00
2022-11-28T13:30:36.856Z,100.00
2022-11-28T13:33:27.793Z,100.00
2022-11-28T13:35:55.380Z,100.00
2022-11-28T13:39:12.850Z,100.00
2022-11-28T13:42:21.785Z,100.00
2022-11-28T13:44:52.783Z,100.00
2022-11-28T13:47:22.411Z,100.00
2022-11-28T13:49:49.404Z,100.00
2022-11-28T13:52:18.951Z,100.00
2022-11-28T13:54:55.263Z,100.00
2022-11-28T13:57:39.235Z,100.00
2022-11-28T14:00:27.753Z,100.00
2022-11-28T14:03:01.348Z,100.00
2022-11-28T14:05:35.814Z,100.00
2022-11-28T14:08:04.549Z,100.00
2022-11-28T14:11:00.420Z,100.00
2022-11-28T14:13:48.255Z,100.00
2022-11-28T14:17:02.826Z,100.00
2022-11-28T14:20:14.291Z,100.00
2022-11-28T14:22:49.572Z,100.00
2022-11-28T14:25:22.601Z,100.00
2022-11-28T14:27:59.899Z,100.00
2022-11-28T14:30:32.213Z,100.00
2022-11-28T14:33:03.160Z,100.00
2022-11-28T14:36:03.518Z,100.00
2022-11-28T14:38:33.872Z,100.00
2022-11-28T14:41:03.225Z,100.00
2022-11-28T14:43:35.043Z,100.00
2022-11-28T14:46:27.473Z,100.00
2022-11-28T14:48:59.886Z,100.00
2022-11-28T14:51:49.229Z,100.00
2022-11-28T14:54:48.078Z,100.00
2022-11-28T14:57:28.395Z,100.00
2022-11-28T15:00:00.965Z,100.00
2022-11-28T15:02:33.241Z,100.00
2022-11-28T15:05:36.905Z,100.00
2022-11-28T15:08:46.070Z,100.00
2022-11-28T15:11:43.348Z,100.00
2022-11-28T15:14:23.683Z,100.00
2022-11-28T15:16:55.503Z,100.00
2022-11-28T15:19:29.215Z,100.00
2022-11-28T15:21:56.397Z,100.00
2022-11-28T15:24:34.973Z,100.00
2022-11-28T15:27:07.777Z,100.00
2022-11-28T15:29:35.581Z,100.00
2022-11-28T15:32:02.575Z,100.00
2022-11-28T15:34:32.036Z,100.00
2022-11-28T15:37:05.251Z,100.00
2022-11-28T15:39:35.114Z,100.00
2022-11-28T15:42:04.907Z,100.00
2022-11-28T15:44:31.699Z,100.00
2022-11-28T15:47:04.815Z,100.00
2022-11-28T15:49:38.506Z,100.00
2022-11-28T15:52:05.109Z,100.00
2022-11-28T15:54:43.054Z,100.00
2022-11-28T15:57:23.231Z,100.00
2022-11-28T15:59:49.888Z,100.00
2022-11-28T16:02:34.779Z,100.00
2022-11-28T16:05:12.806Z,100.00
2022-11-28T16:07:44.294Z,100.00
2022-11-28T16:10:35.266Z,100.00
2022-11-28T16:13:04.776Z,100.00
2022-11-28T16:15:35.478Z,100.00
2022-11-28T16:18:02.039Z,100.00
2022-11-28T16:20:35.214Z,100.00
2022-11-28T16:23:11.435Z,100.00
2022-11-28T16:25:38.858Z,100.00
2022-11-28T16:28:05.962Z,100.00
2022-11-28T16:30:37.314Z,100.00
2022-11-28T16:33:40.129Z,100.00
2022-11-28T16:36:10.864Z,100.00
2022-11-28T16:38:38.685Z,100.00
2022-11-28T16:41:05.394Z,100.00
2022-11-28T16:43:38.473Z,100.00
2022-11-28T16:46:07.811Z,100.00
2022-11-28T16:48:38.006Z,100.00
2022-11-28T16:51:32.758Z,100.00
2022-11-28T16:54:01.156Z,100.00
2022-11-28T16:56:34.529Z,100.00
2022-11-28T16:59:16.736Z,100.00
2022-11-28T17:01:44.651Z,100.00
2022-11-28T17:04:24.303Z,100.00
2022-11-28T17:06:54.867Z,100.00
2022-11-28T17:09:21.399Z,100.00
2022-11-28T17:11:53.752Z,100.00
2022-11-28T17:14:23.417Z,100.00
2022-11-28T17:16:50.090Z,100.00
2022-11-28T17:19:17.408Z,100.00
2022-11-28T17:21:46.640Z,100.00
2022-11-28T17:24:19.979Z,100.00
2022-11-28T17:26:51.058Z,100.00
2022-11-28T17:29:18.624Z,100.00
2022-11-28T17:31:47.244Z,100.00
2022-11-28T17:34:22.516Z,100.00
2022-11-28T17:36:49.877Z,100.00
2022-11-28T17:39:17.717Z,100.00
2022-11-28T17:41:47.177Z,100.00
2022-11-28T17:44:23.188Z,100.00
2022-11-28T17:46:52.140Z,100.00
2022-11-28T17:49:19.037Z,100.00
2022-11-28T17:51:48.656Z,100.00
2022-11-28T17:54:17.715Z,100.00
2022-11-28T17:56:54.194Z,100.00
2022-11-28T17:59:23.022Z,100.00
2022-11-28T18:01:50.229Z,100.00
2022-11-28T18:04:16.759Z,100.00
2022-11-28T18:06:45.145Z,100.00
2022-11-28T18:09:12.809Z,100.00
2022-11-28T18:11:40.833Z,100.00
2022-11-28T18:14:07.725Z,100.00
2022-11-28T18:16:36.119Z,100.00
2022-11-28T18:19:04.122Z,100.00
2022-11-28T18:21:31.455Z,100.00
2022-11-28T18:23:58.165Z,100.00
2022-11-28T18:26:26.384Z,100.00
2022-11-28T18:28:56.613Z,100.00
2022-11-28T18:31:25.732Z,100.00
2022-11-28T18:33:57.415Z,100.00
2022-11-28T18:36:29.063Z,100.00
2022-11-28T18:39:01.129Z,100.00
2022-11-28T18:41:28.794Z,100.00
2022-11-28T18:44:03.764Z,100.00
2022-11-28T18:46:31.393Z,100.00
2022-11-28T18:48:58.405Z,100.00
2022-11-28T18:51:30.914Z,100.00
2022-11-28T18:53:58.253Z,100.00
2022-11-28T18:56:25.678Z,100.00
2022-11-28T18:58:53.819Z,100.00
2022-11-28T19:01:28.283Z,100.00
2022-11-28T19:04:08.733Z,100.00
2022-11-28T19:06:38.740Z,100.00
2022-11-28T19:09:07.548Z,100.00
2022-11-28T19:11:34.137Z,100.00
2022-11-28T19:14:03.485Z,100.00
2022-11-28T19:16:33.575Z,100.00
2022-11-28T19:19:01.412Z,100.00
2022-11-28T19:21:31.669Z,100.00
2022-11-28T19:23:59.309Z,100.00
2022-11-28T19:26:27.620Z,100.00
2022-11-28T19:28:59.522Z,100.00
2022-11-28T19:31:28.719Z,100.00
2022-11-28T19:34:01.989Z,100.00
2022-11-28T19:36:31.772Z,100.00
2022-11-28T19:38:59.436Z,100.00
2022-11-28T19:41:26.908Z,100.00
2022-11-28T19:43:53.377Z,100.00
2022-11-28T19:46:20.532Z,100.00
2022-11-28T19:48:47.260Z,100.00
2022-11-28T19:51:14.260Z,100.00
2022-11-28T19:53:42.302Z,100.00
2022-11-28T19:56:20.134Z,100.00
2022-11-28T19:58:47.426Z,100.00
2022-11-28T20:01:17.992Z,100.00
2022-11-28T20:03:47.653Z,100.00
2022-11-28T20:06:21.745Z,100.00
2022-11-28T20:08:49.561Z,100.00
2022-11-28T20:11:17.857Z,100.00
2022-11-28T20:13:47.787Z,100.00
2022-11-28T20:16:17.684Z,100.00
2022-11-28T20:18:48.340Z,100.00
2022-11-28T20:21:17.489Z,100.00
2022-11-28T20:23:46.704Z,100.00
2022-11-28T20:26:14.578Z,100.00
2022-11-28T20:28:42.390Z,100.00
2022-11-28T20:31:22.207Z,100.00
2022-11-28T20:33:50.688Z,100.00
2022-11-28T20:36:20.119Z,100.00
2022-11-28T20:38:47.192Z,100.00
2022-11-28T20:41:18.305Z,100.00
2022-11-28T20:43:47.370Z,100.00
2022-11-28T20:46:19.349Z,100.00
2022-11-28T20:48:50.587Z,100.00
2022-11-28T20:51:20.215Z,100.00
2022-11-28T20:53:46.844Z,100.00
2022-11-28T20:56:16.084Z,100.00
2022-11-28T20:58:43.226Z,100.00
2022-11-28T21:01:16.853Z,100.00
2022-11-28T21:03:44.080Z,100.00
2022-11-28T21:06:11.106Z,100.00
2022-11-28T21:08:38.008Z,100.00
2022-11-28T21:11:30.591Z,100.00
2022-11-28T21:14:00.809Z,100.00
2022-11-28T21:16:29.692Z,100.00
2022-11-28T21:18:57.623Z,100.00
2022-11-28T21:21:27.579Z,100.00
2022-11-28T21:23:59.665Z,100.00
2022-11-28T21:26:30.475Z,100.00
2022-11-28T21:29:01.272Z,100.00
2022-11-28T21:31:31.155Z,100.00
2022-11-28T21:33:59.431Z,100.00
2022-11-28T21:36:27.479Z,100.00
2022-11-28T21:38:59.376Z,100.00
2022-11-28T21:41:31.313Z,100.00
2022-11-28T21:43:57.998Z,100.00
2022-11-28T21:46:24.782Z,100.00
2022-11-28T21:48:51.346Z,100.00
2022-11-28T21:51:21.037Z,100.00
2022-11-28T21:53:47.580Z,100.00
2022-11-28T21:56:14.355Z,100.00
2022-11-28T21:58:40.843Z,100.00
2022-11-28T22:01:11.286Z,100.00
2022-11-28T22:03:39.200Z,100.00
2022-11-28T22:06:09.081Z,100.00
2022-11-28T22:08:35.826Z,100.00
2022-11-28T22:11:13.111Z,100.00
2022-11-28T22:13:42.272Z,100.00
2022-11-28T22:16:20.691Z,100.00
2022-11-28T22:18:48.083Z,100.00
2022-11-28T22:24:08.245Z,100.00
2022-11-28T22:26:35.084Z,100.00
2022-11-28T22:29:03.900Z,100.00
2022-11-28T22:31:31.086Z,100.00
2022-11-28T22:34:03.230Z,100.00
2022-11-28T22:36:31.174Z,100.00
2022-11-28T22:38:58.941Z,100.00
2022-11-28T22:41:29.258Z,100.00
2022-11-28T22:43:59.461Z,100.00
2022-11-28T22:46:26.943Z,100.00
2022-11-28T22:48:53.474Z,100.00
2022-11-28T22:51:25.883Z,100.00
2022-11-28T22:54:00.138Z,100.00
2022-11-28T22:56:29.846Z,100.00
2022-11-28T22:58:56.398Z,100.00
2022-11-28T23:01:25.407Z,100.00
2022-11-28T23:03:55.435Z,100.00
2022-11-28T23:06:24.590Z,100.00
2022-11-28T23:08:52.268Z,100.00
2022-11-28T23:11:24.148Z,100.00
2022-11-28T23:13:51.867Z,100.00
2022-11-28T23:16:30.181Z,100.00
2022-11-28T23:18:59.568Z,100.00
2022-11-28T23:21:32.929Z,100.00
2022-11-28T23:23:59.612Z,100.00
2022-11-28T23:26:28.846Z,100.00
2022-11-28T23:28:58.257Z,100.00
2022-11-28T23:31:29.295Z,100.00
2022-11-28T23:33:57.177Z,100.00
2022-11-28T23:36:28.421Z,100.00
2022-11-28T23:38:57.606Z,100.00
2022-11-28T23:41:27.842Z,100.00
2022-11-28T23:43:54.524Z,100.00
2022-11-28T23:46:23.805Z,100.00
2022-11-28T23:48:52.532Z,100.00
2022-11-28T23:51:21.968Z,100.00
2022-11-28T23:53:50.045Z,100.00
2022-11-28T23:56:24.445Z,100.00
2022-11-28T23:58:55.993Z,100.00
